Time;durP1;ratioP1;P1;durP2;ratioP2;P2;SDS_P1;SDS_P2;PMS_P1;PMS_P2;Temp;Humidity;BMP_temperature;BMP_pressure;BME280_temperature;BME280_humidity;BME280_pressure;Samples;Min_cycle;Max_cycle;Signal;HPM_P1;HPM_P2
2022/04/14 00:00:34;;;;;;;25.98;13.63;;;;;;;;;;5088731;28;20040;-67
2022/04/14 00:03:00;;;;;;;24.33;12.35;;;;;;;;;;5089636;28;20148;-67
2022/04/14 00:05:27;;;;;;;24.10;13.00;;;;;;;;;;5085740;28;20061;-67
2022/04/14 00:07:54;;;;;;;26.35;12.63;;;;;;;;;;5089123;28;21534;-67
2022/04/14 00:10:20;;;;;;;25.25;13.35;;;;;;;;;;5087934;28;20067;-67
2022/04/14 00:12:48;;;;;;;24.52;13.27;;;;;;;;;;5070364;28;20048;-67
2022/04/14 00:15:14;;;;;;;23.60;13.02;;;;;;;;;;5088758;28;20092;-67
2022/04/14 00:17:40;;;;;;;24.52;12.98;;;;;;;;;;5080444;28;20152;-67
2022/04/14 00:20:08;;;;;;;26.30;13.48;;;;;;;;;;5047399;28;20547;-67
2022/04/14 00:22:35;;;;;;;25.27;13.55;;;;;;;;;;5048612;28;20185;-67
2022/04/14 00:25:03;;;;;;;24.00;13.27;;;;;;;;;;5048521;28;20057;-67
2022/04/14 00:27:29;;;;;;;28.70;14.35;;;;;;;;;;5067493;28;20045;-67
2022/04/14 00:29:55;;;;;;;28.88;15.05;;;;;;;;;;5048743;28;20059;-68
2022/04/14 00:32:21;;;;;;;27.67;14.70;;;;;;;;;;5047638;28;20156;-67
2022/04/14 00:34:48;;;;;;;28.30;14.70;;;;;;;;;;5048608;28;20132;-67
2022/04/14 00:37:17;;;;;;;27.77;15.93;;;;;;;;;;5074540;28;20056;-67
2022/04/14 00:39:44;;;;;;;35.15;15.93;;;;;;;;;;5085877;28;20055;-67
2022/04/14 00:42:10;;;;;;;30.88;14.60;;;;;;;;;;5089102;28;20084;-67
2022/04/14 00:44:37;;;;;;;30.45;16.33;;;;;;;;;;5085402;28;20151;-67
2022/04/14 00:47:04;;;;;;;27.45;15.68;;;;;;;;;;5047973;28;20089;-67
2022/04/14 00:49:31;;;;;;;31.48;16.90;;;;;;;;;;5047748;28;20137;-67
2022/04/14 00:51:59;;;;;;;31.30;17.95;;;;;;;;;;5047427;28;20061;-67
2022/04/14 00:54:25;;;;;;;29.98;16.42;;;;;;;;;;5048091;28;20145;-67
2022/04/14 00:56:52;;;;;;;34.28;17.83;;;;;;;;;;5084779;28;20151;-67
2022/04/14 00:59:18;;;;;;;33.40;18.70;;;;;;;;;;5088722;28;20059;-67
2022/04/14 01:01:44;;;;;;;32.72;16.85;;;;;;;;;;5088540;28;20167;-67
2022/04/14 01:04:12;;;;;;;31.50;17.65;;;;;;;;;;5085887;28;20143;-67
2022/04/14 01:06:38;;;;;;;34.03;17.73;;;;;;;;;;5067314;28;20148;-67
2022/04/14 01:09:20;;;;;;;32.97;16.00;;;;;;;;;;5076664;28;20143;-66
2022/04/14 01:11:48;;;;;;;34.70;16.88;;;;;;;;;;5087891;28;20172;-67
2022/04/14 01:14:25;;;;;;;34.60;18.10;;;;;;;;;;5082904;28;20503;-67
2022/04/14 01:16:51;;;;;;;33.78;16.50;;;;;;;;;;5087423;28;20139;-67
2022/04/14 01:19:18;;;;;;;35.03;17.80;;;;;;;;;;5087951;28;20052;-67
2022/04/14 01:21:48;;;;;;;33.78;16.85;;;;;;;;;;5088187;28;20573;-67
2022/04/14 01:24:15;;;;;;;33.03;18.63;;;;;;;;;;5067427;28;20056;-67
2022/04/14 01:26:41;;;;;;;31.73;18.23;;;;;;;;;;5087340;28;20056;-67
2022/04/14 01:29:18;;;;;;;31.25;16.98;;;;;;;;;;5087469;28;20079;-67
2022/04/14 01:31:45;;;;;;;31.48;17.30;;;;;;;;;;5086744;28;20145;-67
2022/04/14 01:34:11;;;;;;;34.10;18.85;;;;;;;;;;5087217;28;20057;-67
2022/04/14 01:36:37;;;;;;;36.65;18.83;;;;;;;;;;5085400;28;20135;-67
2022/04/14 01:39:04;;;;;;;36.03;19.70;;;;;;;;;;5087655;28;20051;-67
2022/04/14 01:41:30;;;;;;;38.63;20.10;;;;;;;;;;5087916;28;20052;-67
2022/04/14 01:43:56;;;;;;;34.60;18.50;;;;;;;;;;5082625;28;20152;-67
2022/04/14 01:46:22;;;;;;;39.72;19.27;;;;;;;;;;5087287;28;20057;-67
2022/04/14 01:48:50;;;;;;;37.17;17.88;;;;;;;;;;5086338;28;20061;-67
2022/04/14 01:51:16;;;;;;;34.60;18.63;;;;;;;;;;5087265;28;20061;-67
2022/04/14 01:53:42;;;;;;;34.65;19.05;;;;;;;;;;5085492;28;20053;-67
2022/04/14 01:56:08;;;;;;;43.78;19.23;;;;;;;;;;5086969;28;20057;-67
2022/04/14 01:58:35;;;;;;;40.10;19.48;;;;;;;;;;5086789;28;20434;-67
2022/04/14 02:01:01;;;;;;;33.85;18.60;;;;;;;;;;5087721;28;20139;-67
2022/04/14 02:03:28;;;;;;;38.97;19.75;;;;;;;;;;5083885;28;20064;-67
2022/04/14 02:05:54;;;;;;;38.60;21.17;;;;;;;;;;5086813;28;20521;-67
2022/04/14 02:08:21;;;;;;;38.72;20.98;;;;;;;;;;5087521;28;20140;-67
2022/04/14 02:10:47;;;;;;;39.95;20.67;;;;;;;;;;5087000;28;20080;-67
2022/04/14 02:13:13;;;;;;;34.95;19.70;;;;;;;;;;5085041;28;20135;-67
2022/04/14 02:15:40;;;;;;;38.97;19.85;;;;;;;;;;5087113;28;20123;-67
2022/04/14 02:18:06;;;;;;;38.65;19.58;;;;;;;;;;5086669;28;20160;-67
2022/04/14 02:20:32;;;;;;;40.10;20.95;;;;;;;;;;5086905;28;20053;-67
2022/04/14 02:22:59;;;;;;;42.38;21.00;;;;;;;;;;5085851;28;20083;-67
2022/04/14 02:25:26;;;;;;;42.50;20.83;;;;;;;;;;5073610;28;20053;-67
2022/04/14 02:27:52;;;;;;;39.97;21.33;;;;;;;;;;5046529;28;20053;-67
2022/04/14 02:30:18;;;;;;;38.47;20.48;;;;;;;;;;5049169;28;20567;-67
2022/04/14 02:32:45;;;;;;;44.95;21.85;;;;;;;;;;5073347;28;20136;-67
2022/04/14 02:35:11;;;;;;;43.40;21.17;;;;;;;;;;5090443;28;20139;-67
2022/04/14 02:37:37;;;;;;;34.78;20.42;;;;;;;;;;5089821;28;20135;-67
2022/04/14 02:40:04;;;;;;;37.80;21.38;;;;;;;;;;5090440;28;20040;-67
2022/04/14 02:42:30;;;;;;;35.10;21.17;;;;;;;;;;5090421;28;20194;-67
2022/04/14 02:44:57;;;;;;;39.42;21.30;;;;;;;;;;5085339;28;20055;-67
2022/04/14 02:47:23;;;;;;;38.80;21.63;;;;;;;;;;5088829;28;20052;-67
2022/04/14 02:49:49;;;;;;;41.83;23.17;;;;;;;;;;5090268;28;20152;-67
2022/04/14 02:52:16;;;;;;;40.17;22.05;;;;;;;;;;5087708;28;20566;-67
2022/04/14 02:54:42;;;;;;;43.83;23.05;;;;;;;;;;5089993;28;20838;-67
2022/04/14 02:57:09;;;;;;;38.70;21.23;;;;;;;;;;5089914;28;20507;-67
2022/04/14 02:59:36;;;;;;;39.17;20.95;;;;;;;;;;5089771;28;20434;-67
2022/04/14 03:02:03;;;;;;;40.42;22.25;;;;;;;;;;5089916;28;21062;-67
2022/04/14 03:04:30;;;;;;;39.92;21.33;;;;;;;;;;5088071;28;20053;-67
2022/04/14 03:06:57;;;;;;;40.10;22.42;;;;;;;;;;5089907;28;20052;-67
2022/04/14 03:09:23;;;;;;;40.33;21.80;;;;;;;;;;5089745;28;20135;-67
2022/04/14 03:11:50;;;;;;;37.75;21.25;;;;;;;;;;5086749;28;20176;-67
2022/04/14 03:14:16;;;;;;;39.53;22.25;;;;;;;;;;5089496;28;20140;-67
2022/04/14 03:16:42;;;;;;;39.53;20.48;;;;;;;;;;5088297;28;20060;-67
2022/04/14 03:19:09;;;;;;;43.15;21.08;;;;;;;;;;5089009;28;20056;-67
2022/04/14 03:21:35;;;;;;;41.60;21.65;;;;;;;;;;5088227;28;20056;-67
2022/04/14 03:24:01;;;;;;;37.97;20.85;;;;;;;;;;5088703;28;20511;-67
2022/04/14 03:26:27;;;;;;;40.30;21.08;;;;;;;;;;5088641;28;20167;-67
2022/04/14 03:28:54;;;;;;;38.95;20.67;;;;;;;;;;5089876;28;20056;-67
2022/04/14 03:31:20;;;;;;;36.67;20.67;;;;;;;;;;5086978;28;20053;-67
2022/04/14 03:33:47;;;;;;;36.38;20.35;;;;;;;;;;5089077;28;20056;-68
2022/04/14 03:36:13;;;;;;;43.58;22.20;;;;;;;;;;5089137;28;20099;-69
2022/04/14 03:38:39;;;;;;;39.67;21.05;;;;;;;;;;5089065;28;20179;-67
2022/04/14 03:41:07;;;;;;;37.17;21.00;;;;;;;;;;5086837;28;20957;-67
2022/04/14 03:43:34;;;;;;;37.77;19.97;;;;;;;;;;5088430;28;20057;-67
2022/04/14 03:46:01;;;;;;;39.35;21.50;;;;;;;;;;5089270;28;20059;-67
2022/04/14 03:48:27;;;;;;;39.28;21.02;;;;;;;;;;5087575;28;20143;-67
2022/04/14 03:50:53;;;;;;;37.90;20.98;;;;;;;;;;5071360;28;20052;-67
2022/04/14 03:53:20;;;;;;;39.53;22.30;;;;;;;;;;5070089;28;20181;-67
2022/04/14 03:55:46;;;;;;;42.70;21.30;;;;;;;;;;5048775;28;20049;-68
2022/04/14 03:58:13;;;;;;;37.90;20.63;;;;;;;;;;5048697;28;20049;-72
2022/04/14 04:00:39;;;;;;;40.70;21.38;;;;;;;;;;5063996;28;20172;-68
2022/04/14 04:03:08;;;;;;;39.78;19.85;;;;;;;;;;5084827;28;20147;-68
2022/04/14 04:05:34;;;;;;;40.58;21.05;;;;;;;;;;5068642;28;20053;-68
2022/04/14 04:08:01;;;;;;;38.58;20.48;;;;;;;;;;5069127;28;20530;-68
2022/04/14 04:10:27;;;;;;;36.28;19.52;;;;;;;;;;5076819;28;20057;-68
2022/04/14 04:12:54;;;;;;;42.75;22.20;;;;;;;;;;5086175;28;20058;-70
2022/04/14 04:15:20;;;;;;;40.10;21.05;;;;;;;;;;5087538;28;20060;-68
2022/04/14 04:17:47;;;;;;;38.08;21.45;;;;;;;;;;5088216;28;20849;-68
2022/04/14 04:20:13;;;;;;;36.70;19.77;;;;;;;;;;5087253;28;20957;-68
2022/04/14 04:22:40;;;;;;;37.95;20.05;;;;;;;;;;5086788;28;20147;-69
2022/04/14 04:25:07;;;;;;;41.30;19.15;;;;;;;;;;5088245;28;20147;-68
2022/04/14 04:27:33;;;;;;;36.67;20.05;;;;;;;;;;5087963;28;20060;-68
2022/04/14 04:29:59;;;;;;;35.30;19.95;;;;;;;;;;5088808;28;20063;-70
2022/04/14 04:32:26;;;;;;;37.83;20.40;;;;;;;;;;5085776;28;20048;-68
2022/04/14 04:34:52;;;;;;;41.78;21.38;;;;;;;;;;5088492;28;20139;-68
2022/04/14 04:37:19;;;;;;;37.22;20.20;;;;;;;;;;5087710;28;20059;-67
2022/04/14 04:39:45;;;;;;;39.42;20.83;;;;;;;;;;5083935;28;20192;-67
2022/04/14 04:42:11;;;;;;;40.35;20.63;;;;;;;;;;5047493;28;20144;-67
2022/04/14 04:44:38;;;;;;;41.95;21.42;;;;;;;;;;5047357;28;20055;-67
2022/04/14 04:47:05;;;;;;;39.97;21.38;;;;;;;;;;5081212;28;20076;-67
2022/04/14 04:49:31;;;;;;;38.10;21.55;;;;;;;;;;5087448;28;20151;-67
2022/04/14 04:51:59;;;;;;;42.75;21.83;;;;;;;;;;5084278;28;20136;-66
2022/04/14 04:54:26;;;;;;;43.50;22.65;;;;;;;;;;5069376;28;20517;-67
2022/04/14 04:56:53;;;;;;;37.88;21.50;;;;;;;;;;5087857;28;20063;-67
2022/04/14 04:59:19;;;;;;;37.70;20.58;;;;;;;;;;5087073;28;20140;-67
2022/04/14 05:01:45;;;;;;;40.65;22.65;;;;;;;;;;5088875;28;20055;-67
2022/04/14 05:04:12;;;;;;;40.28;21.58;;;;;;;;;;5078651;28;21145;-68
2022/04/14 05:06:38;;;;;;;42.33;22.40;;;;;;;;;;5084544;28;20052;-67
2022/04/14 05:09:05;;;;;;;40.40;21.35;;;;;;;;;;5087976;28;20147;-66
2022/04/14 05:11:31;;;;;;;41.30;21.10;;;;;;;;;;5085393;28;20048;-65
2022/04/14 05:13:58;;;;;;;44.55;21.75;;;;;;;;;;5076975;28;20144;-65
2022/04/14 05:16:24;;;;;;;39.72;22.35;;;;;;;;;;5072039;28;20136;-66
2022/04/14 05:18:50;;;;;;;37.03;20.80;;;;;;;;;;5073606;28;20526;-66
2022/04/14 05:21:17;;;;;;;40.30;21.27;;;;;;;;;;5085516;28;20801;-65
2022/04/14 05:23:43;;;;;;;39.83;20.45;;;;;;;;;;5078982;28;20500;-65
2022/04/14 05:26:09;;;;;;;40.78;22.02;;;;;;;;;;5082005;28;20143;-65
2022/04/14 05:28:36;;;;;;;38.35;20.42;;;;;;;;;;5082370;28;20147;-65
2022/04/14 05:31:02;;;;;;;36.28;20.58;;;;;;;;;;5073622;28;20048;-65
2022/04/14 05:33:29;;;;;;;41.58;21.35;;;;;;;;;;5080752;28;20095;-65
2022/04/14 05:35:55;;;;;;;41.38;22.05;;;;;;;;;;5079290;28;20518;-66
2022/04/14 05:38:21;;;;;;;39.25;21.38;;;;;;;;;;5073995;28;20219;-66
2022/04/14 05:40:48;;;;;;;42.25;21.70;;;;;;;;;;5066605;28;20053;-66
2022/04/14 05:43:22;;;;;;;38.20;20.67;;;;;;;;;;5067686;28;20515;-66
2022/04/14 05:45:48;;;;;;;39.03;21.73;;;;;;;;;;5082039;28;20063;-66
2022/04/14 05:48:15;;;;;;;39.28;21.02;;;;;;;;;;5085770;28;20533;-65
2022/04/14 05:50:43;;;;;;;39.13;20.88;;;;;;;;;;5087636;28;20185;-65
2022/04/14 05:53:09;;;;;;;36.65;20.88;;;;;;;;;;5085496;28;20147;-66
2022/04/14 05:55:36;;;;;;;36.22;20.45;;;;;;;;;;5078284;28;20059;-65
2022/04/14 05:58:03;;;;;;;38.33;21.35;;;;;;;;;;5089670;28;20057;-66
2022/04/14 06:00:30;;;;;;;38.45;21.15;;;;;;;;;;5082820;28;20584;-66
2022/04/14 06:02:59;;;;;;;38.65;20.92;;;;;;;;;;5065246;28;20076;-66
2022/04/14 06:05:27;;;;;;;35.75;20.48;;;;;;;;;;5079201;28;20053;-66
2022/04/14 06:07:54;;;;;;;36.92;20.02;;;;;;;;;;5074073;28;20049;-66
2022/04/14 06:10:21;;;;;;;34.60;20.25;;;;;;;;;;5074253;28;20599;-66
2022/04/14 06:12:47;;;;;;;36.65;20.50;;;;;;;;;;5071142;28;20191;-65
2022/04/14 06:15:14;;;;;;;33.40;20.05;;;;;;;;;;5086423;28;20067;-68
2022/04/14 06:17:42;;;;;;;36.88;20.33;;;;;;;;;;5079120;28;20091;-66
2022/04/14 06:20:09;;;;;;;35.72;19.63;;;;;;;;;;5077903;28;20083;-66
2022/04/14 06:22:39;;;;;;;35.00;19.58;;;;;;;;;;5081040;28;20075;-66
2022/04/14 06:25:06;;;;;;;36.63;20.23;;;;;;;;;;5089506;28;20538;-66
2022/04/14 06:27:32;;;;;;;36.33;19.58;;;;;;;;;;5087090;28;20155;-66
2022/04/14 06:29:59;;;;;;;34.63;19.10;;;;;;;;;;5088977;28;20062;-66
2022/04/14 06:32:25;;;;;;;38.38;19.98;;;;;;;;;;5089912;28;20076;-66
2022/04/14 06:34:53;;;;;;;31.58;18.70;;;;;;;;;;5090969;28;20506;-66
2022/04/14 06:37:19;;;;;;;37.45;19.38;;;;;;;;;;5090551;28;20135;-67
2022/04/14 06:39:45;;;;;;;30.73;17.27;;;;;;;;;;5089982;28;20052;-66
2022/04/14 06:42:12;;;;;;;33.42;17.40;;;;;;;;;;5090316;28;20545;-66
2022/04/14 06:44:38;;;;;;;33.00;18.05;;;;;;;;;;5089489;28;20167;-66
2022/04/14 06:47:05;;;;;;;31.80;17.77;;;;;;;;;;5089584;28;20061;-66
2022/04/14 06:49:31;;;;;;;38.17;17.80;;;;;;;;;;5090005;28;20080;-66
2022/04/14 06:51:57;;;;;;;28.92;17.17;;;;;;;;;;5088809;28;20072;-66
2022/04/14 06:54:24;;;;;;;32.47;18.02;;;;;;;;;;5089875;28;20135;-66
2022/04/14 06:56:50;;;;;;;42.95;18.02;;;;;;;;;;5089999;28;20139;-66
2022/04/14 06:59:16;;;;;;;28.25;15.60;;;;;;;;;;5089771;28;20942;-66
2022/04/14 07:01:43;;;;;;;27.00;15.30;;;;;;;;;;5089562;28;20181;-67
2022/04/14 07:04:09;;;;;;;31.23;16.95;;;;;;;;;;5080283;28;20053;-66
2022/04/14 07:06:36;;;;;;;31.10;16.85;;;;;;;;;;5069783;28;20052;-66
2022/04/14 07:09:02;;;;;;;28.95;16.58;;;;;;;;;;5069785;28;20153;-66
2022/04/14 07:11:28;;;;;;;27.90;15.90;;;;;;;;;;5070036;28;20049;-66
2022/04/14 07:13:55;;;;;;;30.58;15.55;;;;;;;;;;5069439;28;20888;-66
2022/04/14 07:16:21;;;;;;;27.55;14.85;;;;;;;;;;5067574;28;20541;-65
2022/04/14 07:18:47;;;;;;;27.00;14.10;;;;;;;;;;5067752;28;20063;-65
2022/04/14 07:21:14;;;;;;;28.15;14.52;;;;;;;;;;5073706;28;20087;-65
2022/04/14 07:23:40;;;;;;;29.25;14.77;;;;;;;;;;5064618;28;20089;-66
2022/04/14 07:26:06;;;;;;;23.98;14.07;;;;;;;;;;5067238;28;20053;-66
2022/04/14 07:28:33;;;;;;;23.75;13.52;;;;;;;;;;5084662;28;20135;-65
2022/04/14 07:30:59;;;;;;;25.48;14.23;;;;;;;;;;5089669;28;20701;-65
2022/04/14 07:33:25;;;;;;;23.35;14.65;;;;;;;;;;5089562;28;20080;-66
2022/04/14 07:35:52;;;;;;;31.60;15.77;;;;;;;;;;5073159;28;20132;-65
2022/04/14 07:38:19;;;;;;;26.17;14.05;;;;;;;;;;5083590;28;20048;-65
2022/04/14 07:40:45;;;;;;;26.25;14.35;;;;;;;;;;5088792;28;20589;-68
2022/04/14 07:43:12;;;;;;;24.75;14.05;;;;;;;;;;5086762;28;20143;-66
2022/04/14 07:45:39;;;;;;;26.63;14.32;;;;;;;;;;5083841;28;20176;-65
2022/04/14 07:48:06;;;;;;;24.65;13.63;;;;;;;;;;5067654;28;20131;-66
2022/04/14 07:50:32;;;;;;;23.77;14.88;;;;;;;;;;5068516;28;20111;-66
2022/04/14 07:53:01;;;;;;;23.88;13.27;;;;;;;;;;5067268;28;20510;-65
2022/04/14 07:55:32;;;;;;;26.75;13.55;;;;;;;;;;5086520;28;20056;-66
2022/04/14 07:58:01;;;;;;;27.50;14.32;;;;;;;;;;5088574;28;20506;-65
2022/04/14 08:00:27;;;;;;;25.05;13.38;;;;;;;;;;5086731;28;20080;-66
2022/04/14 08:02:56;;;;;;;22.40;12.93;;;;;;;;;;5090046;28;20079;-66
2022/04/14 08:05:33;;;;;;;28.55;14.98;;;;;;;;;;5055933;28;20045;-66
2022/04/14 08:08:03;;;;;;;27.60;14.32;;;;;;;;;;5048304;28;20091;-66
2022/04/14 08:10:30;;;;;;;21.38;12.05;;;;;;;;;;5074663;28;20547;-66
2022/04/14 08:12:57;;;;;;;26.13;13.85;;;;;;;;;;5069522;28;20100;-66
2022/04/14 08:15:24;;;;;;;27.30;13.60;;;;;;;;;;5078966;28;20572;-65
2022/04/14 08:17:51;;;;;;;23.55;13.30;;;;;;;;;;5073152;28;20044;-66
2022/04/14 08:20:17;;;;;;;21.83;13.23;;;;;;;;;;5087365;28;20644;-66
2022/04/14 08:22:46;;;;;;;23.05;13.57;;;;;;;;;;5088665;28;20140;-65
2022/04/14 08:25:14;;;;;;;25.00;13.13;;;;;;;;;;5083343;28;20063;-66
2022/04/14 08:27:40;;;;;;;24.98;14.05;;;;;;;;;;5064487;28;20147;-65
2022/04/14 08:30:06;;;;;;;22.58;13.32;;;;;;;;;;5077920;28;20088;-66
2022/04/14 08:32:34;;;;;;;29.30;13.27;;;;;;;;;;5081842;28;20063;-66
2022/04/14 08:35:01;;;;;;;25.25;12.25;;;;;;;;;;5086398;28;20143;-65
2022/04/14 08:37:28;;;;;;;23.70;12.35;;;;;;;;;;5069973;28;20049;-65
2022/04/14 08:39:57;;;;;;;21.70;12.40;;;;;;;;;;5073972;28;20049;-65
2022/04/14 08:42:30;;;;;;;21.98;12.40;;;;;;;;;;5067451;28;20053;-65
2022/04/14 08:45:00;;;;;;;22.63;11.75;;;;;;;;;;5070970;28;20600;-66
2022/04/14 08:47:27;;;;;;;20.23;10.48;;;;;;;;;;5077024;28;20083;-67
2022/04/14 08:49:55;;;;;;;20.25;10.50;;;;;;;;;;5066315;28;20057;-67
2022/04/14 08:52:21;;;;;;;22.80;11.20;;;;;;;;;;5057759;28;20095;-67
2022/04/14 08:54:48;;;;;;;17.65;10.27;;;;;;;;;;5066337;28;20268;-67
2022/04/14 08:57:15;;;;;;;20.90;10.68;;;;;;;;;;5088056;28;20062;-67
2022/04/14 08:59:45;;;;;;;17.98;9.52;;;;;;;;;;5086444;28;20102;-67
2022/04/14 09:02:16;;;;;;;25.08;10.57;;;;;;;;;;5077987;28;20145;-67
2022/04/14 09:04:43;;;;;;;16.10;9.05;;;;;;;;;;5068664;28;20147;-63
2022/04/14 09:07:10;;;;;;;17.75;9.18;;;;;;;;;;5066213;28;20059;-63
2022/04/14 09:09:37;;;;;;;19.60;10.05;;;;;;;;;;5066610;28;20457;-64
2022/04/14 09:12:04;;;;;;;13.60;7.95;;;;;;;;;;5073052;28;20053;-64
2022/04/14 09:14:34;;;;;;;16.15;8.25;;;;;;;;;;5053328;28;20057;-64
2022/04/14 09:17:02;;;;;;;18.45;9.13;;;;;;;;;;5063308;28;20060;-62
2022/04/14 09:19:29;;;;;;;16.25;8.02;;;;;;;;;;5052212;28;20061;-63
2022/04/14 09:21:57;;;;;;;16.63;7.90;;;;;;;;;;5066112;28;20053;-63
2022/04/14 09:24:38;;;;;;;16.13;7.70;;;;;;;;;;5085428;28;20298;-63
2022/04/14 09:27:04;;;;;;;13.57;6.70;;;;;;;;;;5075323;28;20587;-63
2022/04/14 09:29:31;;;;;;;14.02;6.72;;;;;;;;;;5067226;28;20586;-63
2022/04/14 09:31:57;;;;;;;16.80;7.57;;;;;;;;;;5067902;28;20056;-63
2022/04/14 09:34:48;;;;;;;15.48;6.97;;;;;;;;;;5057808;28;20054;-63
2022/04/14 09:37:15;;;;;;;10.43;6.32;;;;;;;;;;5069847;28;20060;-63
2022/04/14 09:39:50;;;;;;;22.02;6.55;;;;;;;;;;5079463;28;20057;-63
2022/04/14 09:42:17;;;;;;;11.63;5.72;;;;;;;;;;5071591;28;20123;-66
2022/04/14 09:44:43;;;;;;;16.02;6.75;;;;;;;;;;5069748;28;20143;-66
2022/04/14 09:47:09;;;;;;;12.10;6.43;;;;;;;;;;5071196;28;20511;-66
2022/04/14 09:49:42;;;;;;;13.93;6.35;;;;;;;;;;5071123;28;20063;-65
2022/04/14 09:52:08;;;;;;;17.45;6.25;;;;;;;;;;5054763;28;20050;-65
2022/04/14 09:54:34;;;;;;;10.77;6.35;;;;;;;;;;5067565;28;20053;-65
2022/04/14 09:57:01;;;;;;;9.25;5.53;;;;;;;;;;5071016;28;20570;-65
2022/04/14 09:59:30;;;;;;;11.10;5.07;;;;;;;;;;5070760;28;20057;-65
2022/04/14 10:02:23;;;;;;;11.93;6.07;;;;;;;;;;5070233;28;20450;-65
2022/04/14 10:04:50;;;;;;;11.13;5.50;;;;;;;;;;5076563;28;20453;-65
2022/04/14 10:07:17;;;;;;;11.57;5.63;;;;;;;;;;5073719;28;20156;-66
2022/04/14 10:09:45;;;;;;;12.80;5.60;;;;;;;;;;5069606;28;20148;-65
2022/04/14 10:12:17;;;;;;;12.75;4.78;;;;;;;;;;5032405;28;20558;-65
2022/04/14 10:15:08;;;;;;;10.07;4.75;;;;;;;;;;5049692;28;20516;-66
2022/04/14 10:17:38;;;;;;;9.75;4.20;;;;;;;;;;5069049;28;20056;-66
2022/04/14 10:20:06;;;;;;;12.60;5.40;;;;;;;;;;5076008;28;20482;-65
2022/04/14 10:22:32;;;;;;;;;;;;;;;;;;5073010;28;20113;-65
2022/04/14 10:25:00;;;;;;;11.63;4.10;;;;;;;;;;5070955;28;46355;-64
2022/04/14 10:27:27;;;;;;;10.43;3.70;;;;;;;;;;5067204;28;20613;-64
2022/04/14 10:29:54;;;;;;;9.23;3.25;;;;;;;;;;5069795;28;20262;-64
2022/04/14 10:32:21;;;;;;;11.07;3.47;;;;;;;;;;5070390;28;20549;-63
2022/04/14 10:34:48;;;;;;;8.20;3.38;;;;;;;;;;5068310;28;20529;-64
2022/04/14 10:37:19;;;;;;;9.30;3.45;;;;;;;;;;5067242;28;20049;-64
2022/04/14 10:39:48;;;;;;;7.05;3.45;;;;;;;;;;5068641;28;20049;-64
2022/04/14 10:42:16;;;;;;;7.75;3.67;;;;;;;;;;5068187;28;20941;-64
2022/04/14 10:44:53;;;;;;;11.07;4.22;;;;;;;;;;5075467;28;20049;-64
2022/04/14 10:47:32;;;;;;;10.80;3.97;;;;;;;;;;5081625;28;20632;-64
2022/04/14 10:49:58;;;;;;;9.63;4.53;;;;;;;;;;5070379;28;20492;-64
2022/04/14 10:52:30;;;;;;;9.07;4.03;;;;;;;;;;5081145;28;20064;-64
2022/04/14 10:54:58;;;;;;;9.80;3.85;;;;;;;;;;5081304;28;21419;-64
2022/04/14 10:57:40;;;;;;;7.72;3.85;;;;;;;;;;5084492;28;20063;-64
2022/04/14 11:00:27;;;;;;;10.38;4.53;;;;;;;;;;5072500;28;20444;-64
2022/04/14 11:03:02;;;;;;;14.23;5.15;;;;;;;;;;5067894;28;20053;-64
2022/04/14 11:05:39;;;;;;;11.90;4.63;;;;;;;;;;5067106;28;20056;-66
2022/04/14 11:08:22;;;;;;;11.55;5.05;;;;;;;;;;5083867;28;20137;-66
2022/04/14 11:10:55;;;;;;;8.10;4.15;;;;;;;;;;5070800;28;20136;-66
2022/04/14 11:13:21;;;;;;;9.82;4.05;;;;;;;;;;5084777;28;20052;-65
2022/04/14 11:15:47;;;;;;;10.70;4.82;;;;;;;;;;5067007;28;20061;-66
2022/04/14 11:18:14;;;;;;;7.82;4.20;;;;;;;;;;5048334;28;20057;-66
2022/04/14 11:20:46;;;;;;;8.32;4.07;;;;;;;;;;5072202;28;20139;-66
2022/04/14 11:23:20;;;;;;;8.20;3.85;;;;;;;;;;5072368;28;20437;-66
2022/04/14 11:25:47;;;;;;;7.57;4.60;;;;;;;;;;5067152;28;20159;-66
2022/04/14 11:28:27;;;;;;;9.30;4.72;;;;;;;;;;5068038;28;20144;-66
2022/04/14 11:31:02;;;;;;;11.40;5.00;;;;;;;;;;5068806;28;20136;-66
2022/04/14 11:33:31;;;;;;;9.98;5.28;;;;;;;;;;5063661;28;20092;-66
2022/04/14 11:36:08;;;;;;;11.13;6.15;;;;;;;;;;5055843;28;20099;-66
2022/04/14 11:38:53;;;;;;;13.45;5.45;;;;;;;;;;5069372;28;20057;-66
2022/04/14 11:41:32;;;;;;;9.05;5.20;;;;;;;;;;5072055;28;20056;-65
2022/04/14 11:44:11;;;;;;;10.18;5.38;;;;;;;;;;5085964;28;20183;-66
2022/04/14 11:46:38;;;;;;;11.57;6.10;;;;;;;;;;5053498;28;20076;-66
2022/04/14 11:49:05;;;;;;;9.38;5.75;;;;;;;;;;5071415;28;20584;-65
2022/04/14 11:51:32;;;;;;;10.63;5.68;;;;;;;;;;5050988;28;20671;-66
2022/04/14 11:53:58;;;;;;;10.88;5.53;;;;;;;;;;5048236;28;20045;-65
2022/04/14 11:56:39;;;;;;;12.65;6.15;;;;;;;;;;5050094;28;20084;-65
2022/04/14 11:59:08;;;;;;;9.68;5.57;;;;;;;;;;5077591;28;20499;-66
2022/04/14 12:01:36;;;;;;;8.30;5.15;;;;;;;;;;5068500;28;20098;-65
2022/04/14 12:04:06;;;;;;;11.65;5.65;;;;;;;;;;5089293;28;20080;-65
2022/04/14 12:06:32;;;;;;;11.48;5.50;;;;;;;;;;5083034;28;20056;-65
2022/04/14 12:08:59;;;;;;;9.82;5.07;;;;;;;;;;5082885;28;20139;-65
2022/04/14 12:11:28;;;;;;;11.70;5.85;;;;;;;;;;5070790;28;20052;-65
2022/04/14 12:13:55;;;;;;;11.95;5.55;;;;;;;;;;5076375;28;20139;-65
2022/04/14 12:16:21;;;;;;;12.68;6.72;;;;;;;;;;5067925;28;20588;-65
2022/04/14 12:18:50;;;;;;;11.32;6.22;;;;;;;;;;5069527;28;20059;-65
2022/04/14 12:21:20;;;;;;;9.90;6.32;;;;;;;;;;5088870;28;20067;-66
2022/04/14 12:23:48;;;;;;;10.45;5.57;;;;;;;;;;5070008;28;20135;-66
2022/04/14 12:26:16;;;;;;;9.30;5.70;;;;;;;;;;5047369;28;20106;-66
2022/04/14 12:28:42;;;;;;;10.27;5.90;;;;;;;;;;5050138;28;20157;-66
2022/04/14 12:31:10;;;;;;;13.45;5.80;;;;;;;;;;5072207;28;20060;-66
2022/04/14 12:33:36;;;;;;;10.50;5.63;;;;;;;;;;5085135;28;20143;-63
2022/04/14 12:36:09;;;;;;;9.05;4.47;;;;;;;;;;5078115;28;20268;-63
2022/04/14 12:38:43;;;;;;;9.77;4.45;;;;;;;;;;5064401;28;20147;-63
2022/04/14 12:41:15;;;;;;;7.72;5.03;;;;;;;;;;5064793;28;20053;-63
2022/04/14 12:43:48;;;;;;;7.55;4.40;;;;;;;;;;5078385;28;20515;-63
2022/04/14 12:46:34;;;;;;;9.98;5.18;;;;;;;;;;5085677;28;20048;-63
2022/04/14 12:49:09;;;;;;;9.70;6.05;;;;;;;;;;5068315;28;20599;-63
2022/04/14 12:51:55;;;;;;;10.30;5.88;;;;;;;;;;5068377;28;20064;-66
2022/04/14 12:54:23;;;;;;;9.23;5.80;;;;;;;;;;5067998;28;20057;-66
2022/04/14 12:56:49;;;;;;;;;;;;;;;;;;5069546;28;20136;-66
2022/04/14 12:59:18;;;;;;;9.77;5.63;;;;;;;;;;5067161;28;43208;-66
2022/04/14 13:01:49;;;;;;;8.75;5.50;;;;;;;;;;5082170;28;20053;-66
2022/04/14 13:04:18;;;;;;;11.60;5.35;;;;;;;;;;5066516;28;20064;-66
2022/04/14 13:07:00;;;;;;;11.30;5.45;;;;;;;;;;5065478;28;20053;-66
2022/04/14 13:09:27;;;;;;;9.20;5.70;;;;;;;;;;5078007;28;20564;-66
2022/04/14 13:11:54;;;;;;;11.52;5.38;;;;;;;;;;5081202;28;20134;-66
2022/04/14 13:14:43;;;;;;;10.77;4.85;;;;;;;;;;5065455;28;20062;-66
2022/04/14 13:17:27;;;;;;;10.50;4.67;;;;;;;;;;5072044;28;20056;-66
2022/04/14 13:19:54;;;;;;;7.82;3.83;;;;;;;;;;5077208;28;20344;-66
2022/04/14 13:22:22;;;;;;;6.77;3.67;;;;;;;;;;5069097;28;20517;-67
2022/04/14 13:24:48;;;;;;;8.77;4.10;;;;;;;;;;5078780;28;20307;-66
2022/04/14 13:27:15;;;;;;;7.28;3.90;;;;;;;;;;5076099;28;20147;-66
2022/04/14 13:29:41;;;;;;;9.02;3.80;;;;;;;;;;5081315;28;20148;-66
2022/04/14 13:32:07;;;;;;;7.63;3.70;;;;;;;;;;5076702;28;20180;-66
2022/04/14 13:34:34;;;;;;;8.77;3.80;;;;;;;;;;5068058;28;20064;-66
2022/04/14 13:37:02;;;;;;;8.27;3.80;;;;;;;;;;5082965;28;20045;-66
2022/04/14 13:39:28;;;;;;;5.90;3.30;;;;;;;;;;5073165;28;20054;-66
2022/04/14 13:41:54;;;;;;;6.70;3.63;;;;;;;;;;5072055;28;20147;-66
2022/04/14 13:44:21;;;;;;;9.07;4.10;;;;;;;;;;5073386;28;20068;-66
2022/04/14 13:46:47;;;;;;;10.77;4.75;;;;;;;;;;5065662;28;20049;-66
2022/04/14 13:49:13;;;;;;;10.63;4.10;;;;;;;;;;5067943;28;20591;-66
2022/04/14 13:51:40;;;;;;;7.38;3.90;;;;;;;;;;5081736;28;20156;-66
2022/04/14 13:54:08;;;;;;;9.85;4.22;;;;;;;;;;5070381;28;20080;-66
2022/04/14 13:56:34;;;;;;;16.20;4.60;;;;;;;;;;5065183;28;20516;-67
2022/04/14 13:59:00;;;;;;;9.93;5.07;;;;;;;;;;5073421;28;20856;-66
2022/04/14 14:01:27;;;;;;;9.15;4.93;;;;;;;;;;5082193;28;20151;-66
2022/04/14 14:03:53;;;;;;;10.07;4.88;;;;;;;;;;5073156;28;20049;-66
2022/04/14 14:06:20;;;;;;;9.63;4.55;;;;;;;;;;5078651;28;20127;-67
2022/04/14 14:08:46;;;;;;;8.25;3.97;;;;;;;;;;5071331;28;20135;-66
2022/04/14 14:11:12;;;;;;;10.80;5.07;;;;;;;;;;5073106;28;20147;-66
2022/04/14 14:13:39;;;;;;;9.73;4.15;;;;;;;;;;5061130;28;20057;-66
2022/04/14 14:16:05;;;;;;;11.13;5.18;;;;;;;;;;5070542;28;20897;-66
2022/04/14 14:18:37;;;;;;;8.60;4.90;;;;;;;;;;5079654;28;20606;-65
2022/04/14 14:21:04;;;;;;;10.02;5.20;;;;;;;;;;5068695;28;20391;-66
2022/04/14 14:23:30;;;;;;;10.43;4.97;;;;;;;;;;5065844;28;20060;-66
2022/04/14 14:25:56;;;;;;;9.93;4.50;;;;;;;;;;5076005;28;20041;-66
2022/04/14 14:28:22;;;;;;;8.85;4.35;;;;;;;;;;5084454;28;20059;-66